LFMDLFKJ

Guest
Details From LFMD - Mandelieu
To LFKJ - Napoleon Bonaparte
Flight Number -
Tags decoded
Created
Modified
Stats Distance 129 nm / 238 km
Max Altitude 0 ft / 0 m
Waypoints 3
Social Downloads 0
Likes 0
Share VATSIM

Download

Looking for another format? Having issues loading an existing format? Contact us
Advertisement - Login to hide

Notes

Requested: LFMD MERLU BOBOBA LFKJ Unmatched points: BOBOBA

Route

LFMD MERLU LFKJ

ID Type Via Altitude Latitude Longitude Leg Dist Tot Dist Heading (true) Name
O LFMD APT - 0 ft / 0 m 43.54673˚ 6.95310˚ - 0 nm - Mandelieu
MERLU FIX - 0 ft / 0 m 43.08000˚ 7.79333˚ 46 nm 46 nm 127° / 128° -
O LFKJ APT - 0 ft / 0 m 41.92289˚ 8.79959˚ 82 nm 128 nm 147° / 148° Napoleon Bonaparte

Altitude Profile

Advertisement - Login to hide

LFMD

Details ICAO LFMD (CEQ)
Name Mandelieu
Region France
Timezone Europe/Paris (UTC+1.0)
Stats Elevation 12 ft / 4 m (AMSL)
Location 43.546734° 6.953097°
Runways 3
Magnetic Variation 1.955° E

METAR

LFMD 112130Z AUTO 24016KT CAVOK 10/07 Q0997

Decode

TAF

TAF TAF LFMD 111911Z 1119/1215 CNL

Decode

Departure Runways

ID Width Length Bearing (true) Bearing (mag) Surface Threshold Offset Overrun Length
05 98 ft / 30 m 2,430 ft / 741 m 45.28° 43.32° Asphalt 295 ft / 90 m 0 ft / 0 m
17 148 ft / 45 m 5,287 ft / 1,611 m 172.58° 170.62° Asphalt 689 ft / 210 m 0 ft / 0 m
17L 164 ft / 50 m 1,872 ft / 571 m 172.60° 170.64° Grass 0 ft / 0 m 0 ft / 0 m
23 98 ft / 30 m 2,430 ft / 741 m 225.28° 223.32° Asphalt 98 ft / 30 m 0 ft / 0 m
35 148 ft / 45 m 5,287 ft / 1,611 m 352.58° 350.62° Asphalt 1,148 ft / 350 m 0 ft / 0 m
35R 164 ft / 50 m 1,872 ft / 571 m 352.60° 350.64° Grass 0 ft / 0 m 0 ft / 0 m

LFKJ

Details ICAO LFKJ (AJA)
Name Napoleon Bonaparte
Region France
Timezone Europe/Paris (UTC+1.0)
Stats Elevation 18 ft / 5 m (AMSL)
Location 41.922886° 8.799587°
Runways 2
Magnetic Variation 2.328° E

METAR

LFKJ 112130Z AUTO 18017KT 9999 FEW056 OVC068 18/11 Q1002 TEMPO 4000 RA BECMG VRB05KT

Decode

TAF

TAF LFKJ 112000Z 1121/1221 18018G30KT 9999 SCT025 BKN060 BECMG 1123/1203 VRB05KT TEMPO 1121/1214 4000 RA BKN015

Decode

Destination Runways

ID Width Length Bearing (true) Bearing (mag) Surface Threshold Offset Overrun Length
02 180 ft / 55 m 7,899 ft / 2,408 m 24.94° 22.61° Asphalt 0 ft / 0 m 164 ft / 50 m
10 98 ft / 30 m 3,447 ft / 1,051 m 94.35° 92.02° Concrete 0 ft / 0 m 164 ft / 50 m
20 180 ft / 55 m 7,899 ft / 2,408 m 204.95° 202.62° Asphalt 745 ft / 227 m 230 ft / 70 m
28 98 ft / 30 m 3,447 ft / 1,051 m 274.36° 272.03° Concrete 213 ft / 65 m 0 ft / 0 m

Approach Navaids

Runway Type Ident Frequency Range Bearing (true) Bearing (mag) Slope Elevation
02 Localiser AC 110.30 MHz 27 nm / 50 km 24.92° 22.59° - 18 ft / 5 m (AMSL)
02 Glidescope AC 110.30 MHz 27 nm / 50 km 24.92° 22.59° 3.00° 18 ft / 5 m (AMSL)
02 DME AC 110.30 MHz 27 nm / 50 km - - - 18 ft / 5 m (AMSL)

Popular Alternatives